createdAt,value
2018-10-01T00:00:32.064Z,0.00
2018-10-01T00:01:31.709Z,0.00
2018-10-01T00:02:32.005Z,0.00
2018-10-01T00:03:32.580Z,0.00
2018-10-01T00:04:32.486Z,0.00
2018-10-01T00:05:34.639Z,0.00
2018-10-01T00:06:34.242Z,0.00
2018-10-01T00:07:34.323Z,0.00
2018-10-01T00:08:34.548Z,0.00
2018-10-01T00:09:34.688Z,0.00
2018-10-01T00:10:35.177Z,0.00
2018-10-01T00:11:35.722Z,0.00
2018-10-01T00:12:36.345Z,0.00
2018-10-01T00:13:36.547Z,0.00
2018-10-01T00:14:38.545Z,0.00
2018-10-01T00:15:37.470Z,0.00
2018-10-01T00:16:38.918Z,0.00
2018-10-01T00:17:38.671Z,0.00
2018-10-01T00:18:38.568Z,0.00
2018-10-01T00:19:40.273Z,0.00
2018-10-01T00:20:39.838Z,0.00
2018-10-01T00:21:40.155Z,0.00
2018-10-01T00:22:40.366Z,0.00
2018-10-01T00:23:41.026Z,0.00
2018-10-01T00:24:41.712Z,0.00
2018-10-01T00:25:42.156Z,0.00
2018-10-01T00:26:43.533Z,0.00
2018-10-01T00:27:43.854Z,0.00
2018-10-01T00:28:44.222Z,0.00
2018-10-01T00:29:44.536Z,0.00
2018-10-01T00:30:44.887Z,0.00
2018-10-01T00:31:45.194Z,0.00
2018-10-01T00:31:53.593Z,0.00
2018-10-01T00:32:54.887Z,0.00
2018-10-01T00:33:55.224Z,0.00
2018-10-01T00:34:55.784Z,0.00
2018-10-01T00:35:56.186Z,0.00
2018-10-01T00:36:56.523Z,0.00
2018-10-01T00:37:56.848Z,0.00
2018-10-01T00:38:57.392Z,0.00
2018-10-01T00:39:57.727Z,0.00
2018-10-01T00:40:58.099Z,0.00
2018-10-01T00:41:58.473Z,0.00
2018-10-01T00:42:59.408Z,0.00
2018-10-01T00:44:00.093Z,0.00
2018-10-01T00:45:00.448Z,0.00
2018-10-01T00:46:00.820Z,0.00
2018-10-01T00:47:01.241Z,0.00
2018-10-01T00:48:02.689Z,0.00
2018-10-01T00:49:02.078Z,0.00
2018-10-01T00:50:02.423Z,0.00
2018-10-01T00:51:02.845Z,0.00
2018-10-01T00:52:03.226Z,0.00
2018-10-01T00:53:03.743Z,0.00
2018-10-01T00:54:04.041Z,0.00
2018-10-01T00:55:04.382Z,0.00
2018-10-01T00:56:04.689Z,0.00
2018-10-01T00:57:05.230Z,0.00
2018-10-01T00:58:05.679Z,0.00
2018-10-01T00:59:05.991Z,0.00
2018-10-01T01:00:06.343Z,0.00
2018-10-01T01:01:06.834Z,0.00
2018-10-01T01:02:07.638Z,0.00
2018-10-01T01:03:08.013Z,0.00
2018-10-01T01:04:08.515Z,0.00
2018-10-01T01:05:08.841Z,0.00
2018-10-01T01:06:09.246Z,0.00
2018-10-01T01:07:09.791Z,0.00
2018-10-01T01:08:10.138Z,0.00
2018-10-01T01:09:10.492Z,0.00
2018-10-01T01:10:10.817Z,0.00
2018-10-01T01:11:11.349Z,0.00
2018-10-01T01:12:11.818Z,0.00
2018-10-01T01:13:12.121Z,0.00
2018-10-01T01:14:12.403Z,0.00
2018-10-01T01:15:12.734Z,0.00
2018-10-01T01:15:21.140Z,0.00
2018-10-01T01:16:22.427Z,0.00
2018-10-01T01:17:21.776Z,0.00
2018-10-01T01:18:23.133Z,0.00
2018-10-01T01:19:23.457Z,0.00
2018-10-01T01:20:23.853Z,0.00
2018-10-01T01:21:24.411Z,0.00
2018-10-01T01:22:24.763Z,0.00
2018-10-01T01:23:25.050Z,0.00
2018-10-01T01:24:25.326Z,0.00
2018-10-01T01:25:25.626Z,0.00
2018-10-01T01:26:26.016Z,0.00
2018-10-01T01:27:26.355Z,0.00
2018-10-01T01:28:26.676Z,0.00
2018-10-01T01:29:27.001Z,0.00
2018-10-01T01:30:27.303Z,0.00
2018-10-01T01:31:27.748Z,0.00
2018-10-01T01:32:28.146Z,0.00
2018-10-01T01:33:28.489Z,0.00
2018-10-01T01:34:29.473Z,0.00
2018-10-01T01:35:29.753Z,0.00
2018-10-01T01:36:30.410Z,0.00
2018-10-01T01:37:30.742Z,0.00
2018-10-01T01:38:31.226Z,0.00
2018-10-01T01:39:31.604Z,0.00
2018-10-01T01:40:32.009Z,0.00
2018-10-01T01:41:32.508Z,0.00
2018-10-01T01:42:32.868Z,0.00
2018-10-01T01:43:33.172Z,0.00
2018-10-01T01:44:33.484Z,0.00
2018-10-01T01:45:33.880Z,0.00
2018-10-01T01:46:34.316Z,0.00
2018-10-01T01:47:34.698Z,0.00
2018-10-01T01:48:35.040Z,0.00
2018-10-01T01:49:35.338Z,0.00
2018-10-01T01:50:35.770Z,0.00
2018-10-01T01:51:36.138Z,0.00
2018-10-01T01:52:36.590Z,0.00
2018-10-01T01:53:37.069Z,0.00
2018-10-01T01:54:37.364Z,0.00
2018-10-01T01:55:37.652Z,0.00
2018-10-01T01:56:38.137Z,0.00
2018-10-01T01:57:38.459Z,0.00
2018-10-01T01:58:38.792Z,0.00
2018-10-01T01:59:39.102Z,0.00
2018-10-01T01:59:47.150Z,0.00
2018-10-01T02:00:48.455Z,0.00
2018-10-01T02:01:49.099Z,0.00
2018-10-01T02:02:49.563Z,0.00
2018-10-01T02:03:50.201Z,0.00
2018-10-01T02:04:50.543Z,0.00
2018-10-01T02:05:50.857Z,0.00
2018-10-01T02:06:51.189Z,0.00
2018-10-01T02:07:51.524Z,0.00
2018-10-01T02:08:51.841Z,0.00
2018-10-01T02:09:52.149Z,0.00
2018-10-01T02:10:52.459Z,0.00
2018-10-01T02:11:52.771Z,0.00
2018-10-01T02:12:53.066Z,0.00
2018-10-01T02:13:53.506Z,0.00
2018-10-01T02:14:53.835Z,0.00
2018-10-01T02:15:54.149Z,0.00
2018-10-01T02:16:54.565Z,0.00
2018-10-01T02:17:54.998Z,0.00
2018-10-01T02:18:55.397Z,0.00
2018-10-01T02:19:55.731Z,0.00
2018-10-01T02:20:56.243Z,0.00
2018-10-01T02:21:56.565Z,0.00
2018-10-01T02:22:56.965Z,0.00
2018-10-01T02:23:57.436Z,0.00
2018-10-01T02:24:58.316Z,0.00
2018-10-01T02:25:59.283Z,0.00
2018-10-01T02:26:59.526Z,0.00
2018-10-01T02:27:59.968Z,0.00
2018-10-01T02:29:00.437Z,0.00
2018-10-01T02:30:00.830Z,0.00
2018-10-01T02:31:01.208Z,0.00
2018-10-01T02:32:01.619Z,0.00
2018-10-01T02:33:01.980Z,0.00
2018-10-01T02:34:02.308Z,0.00
2018-10-01T02:35:02.668Z,0.00
2018-10-01T02:36:02.979Z,0.00
2018-10-01T02:37:03.266Z,0.00
2018-10-01T02:38:03.513Z,0.00
2018-10-01T02:39:03.935Z,0.00
2018-10-01T02:40:04.291Z,0.00
2018-10-01T02:40:12.761Z,0.00
2018-10-01T02:41:14.142Z,0.00
2018-10-01T02:42:14.460Z,0.00
2018-10-01T02:43:14.821Z,0.00
2018-10-01T02:44:15.138Z,0.00
2018-10-01T02:45:15.874Z,0.00
2018-10-01T02:46:16.239Z,0.00
2018-10-01T02:47:16.631Z,0.00
2018-10-01T02:48:16.972Z,0.00
2018-10-01T02:49:17.290Z,0.00
2018-10-01T02:50:17.723Z,0.00
2018-10-01T02:51:18.395Z,0.00
2018-10-01T02:52:18.738Z,0.00
2018-10-01T02:53:19.062Z,0.00
2018-10-01T02:54:19.485Z,0.00
2018-10-01T02:55:19.865Z,0.00
2018-10-01T02:56:20.450Z,0.00
2018-10-01T02:57:20.840Z,0.00
2018-10-01T02:58:21.192Z,0.00
2018-10-01T02:59:20.556Z,0.00
2018-10-01T03:00:21.986Z,0.00
2018-10-01T03:01:22.310Z,0.00
2018-10-01T03:02:22.833Z,0.00
2018-10-01T03:03:23.376Z,0.00
2018-10-01T03:04:23.669Z,0.00
2018-10-01T03:05:24.045Z,0.00
2018-10-01T03:06:24.427Z,0.00
2018-10-01T03:07:24.827Z,0.00
2018-10-01T03:08:25.134Z,0.00
2018-10-01T03:09:25.464Z,0.00
2018-10-01T03:10:25.793Z,0.00
2018-10-01T03:11:26.287Z,0.00
2018-10-01T03:12:26.816Z,0.00
2018-10-01T03:13:26.106Z,0.00
2018-10-01T03:14:27.528Z,0.00
2018-10-01T03:15:27.844Z,0.00
2018-10-01T03:16:28.721Z,0.00
2018-10-01T03:17:29.080Z,0.00
2018-10-01T03:18:29.471Z,0.00
2018-10-01T03:19:29.834Z,0.00
2018-10-01T03:20:30.120Z,0.00
2018-10-01T03:21:30.606Z,0.00
2018-10-01T03:22:31.003Z,0.00
2018-10-01T03:23:31.414Z,0.00
2018-10-01T03:24:31.746Z,0.00
2018-10-01T03:25:32.063Z,0.00
2018-10-01T03:26:32.428Z,0.00
2018-10-01T03:27:32.788Z,0.00
2018-10-01T03:27:41.143Z,0.00
2018-10-01T03:28:42.468Z,0.00
2018-10-01T03:29:42.945Z,0.00
2018-10-01T03:30:43.256Z,0.00
2018-10-01T03:31:43.548Z,0.00
2018-10-01T03:32:44.041Z,0.00
2018-10-01T03:33:44.442Z,0.00
2018-10-01T03:34:44.792Z,0.00
2018-10-01T03:35:45.208Z,0.00
2018-10-01T03:36:45.670Z,0.00
2018-10-01T03:37:46.033Z,0.00
2018-10-01T03:38:46.422Z,0.00
2018-10-01T03:39:46.725Z,0.00
2018-10-01T03:40:47.166Z,0.00
2018-10-01T03:41:47.612Z,0.00
2018-10-01T03:42:48.005Z,0.00
2018-10-01T03:43:48.397Z,0.00
2018-10-01T03:44:48.877Z,0.00
2018-10-01T03:45:49.218Z,0.00
2018-10-01T03:46:49.953Z,0.00
2018-10-01T03:47:50.294Z,0.00
2018-10-01T03:48:50.661Z,0.00
2018-10-01T03:49:51.039Z,0.00
2018-10-01T03:50:51.337Z,0.00
2018-10-01T03:51:51.636Z,0.00
2018-10-01T03:52:52.105Z,0.00
2018-10-01T03:53:52.467Z,0.00
2018-10-01T03:54:52.829Z,0.00
2018-10-01T03:55:53.107Z,0.00
2018-10-01T03:56:53.420Z,0.00
2018-10-01T03:57:53.838Z,0.00
2018-10-01T03:58:54.158Z,0.00
2018-10-01T03:59:54.611Z,0.00
2018-10-01T04:00:54.971Z,0.00
2018-10-01T04:01:55.242Z,0.00
2018-10-01T04:02:54.649Z,0.00
2018-10-01T04:03:54.993Z,0.00
2018-10-01T04:04:56.406Z,0.00
2018-10-01T04:05:56.719Z,0.00
2018-10-01T04:06:57.519Z,0.00
2018-10-01T04:07:57.861Z,0.00
2018-10-01T04:08:58.530Z,0.00
2018-10-01T04:09:57.785Z,0.00
2018-10-01T04:10:59.182Z,0.00
2018-10-01T04:11:59.762Z,0.00
2018-10-01T04:13:00.049Z,0.00
2018-10-01T04:14:00.476Z,0.00
2018-10-01T04:14:08.918Z,0.00
2018-10-01T04:15:10.312Z,0.00
2018-10-01T04:16:10.592Z,0.00
2018-10-01T04:17:10.995Z,0.00
2018-10-01T04:18:11.334Z,0.00
2018-10-01T04:19:11.631Z,0.00
2018-10-01T04:20:11.890Z,0.00
2018-10-01T04:21:12.318Z,0.00
2018-10-01T04:22:12.684Z,0.00
2018-10-01T04:23:12.989Z,0.00
2018-10-01T04:24:13.365Z,0.00
2018-10-01T04:25:13.671Z,0.00
2018-10-01T04:26:13.991Z,0.00
2018-10-01T04:27:14.258Z,0.00
2018-10-01T04:28:14.639Z,0.00
2018-10-01T04:29:13.868Z,0.00
2018-10-01T04:30:15.184Z,0.00
2018-10-01T04:31:15.574Z,0.05
2018-10-01T04:32:15.898Z,0.05
2018-10-01T04:33:16.175Z,0.05
2018-10-01T04:34:16.469Z,0.05
2018-10-01T04:35:16.861Z,0.00
2018-10-01T04:36:17.226Z,0.00
2018-10-01T04:37:17.663Z,0.05
2018-10-01T04:38:18.030Z,0.05
2018-10-01T04:39:18.366Z,0.05
2018-10-01T04:40:18.679Z,0.05
2018-10-01T04:41:19.103Z,0.05
2018-10-01T04:42:19.747Z,0.05
2018-10-01T04:43:20.106Z,0.05
2018-10-01T04:44:20.591Z,0.05
2018-10-01T04:45:20.970Z,0.05
2018-10-01T04:46:21.395Z,0.09
2018-10-01T04:47:22.103Z,0.14
2018-10-01T04:48:22.508Z,0.18
2018-10-01T04:49:22.975Z,0.18
2018-10-01T04:50:23.277Z,0.22
2018-10-01T04:51:23.614Z,0.27
2018-10-01T04:52:24.020Z,0.31
2018-10-01T04:53:24.481Z,0.41
2018-10-01T04:54:24.914Z,0.50
2018-10-01T04:55:25.361Z,0.58
2018-10-01T04:56:25.668Z,0.68
2018-10-01T04:57:26.136Z,0.81
2018-10-01T04:57:34.525Z,0.86
2018-10-01T04:58:35.591Z,1.03
2018-10-01T04:59:34.839Z,1.22
2018-10-01T05:00:36.141Z,1.49
2018-10-01T05:01:36.522Z,1.75
2018-10-01T05:02:36.909Z,2.03
2018-10-01T05:03:37.392Z,2.38
2018-10-01T05:04:37.643Z,2.88
2018-10-01T05:05:37.959Z,3.46
2018-10-01T05:06:38.486Z,4.18
2018-10-01T05:07:38.810Z,5.22
2018-10-01T05:08:39.279Z,6.30
2018-10-01T05:09:40.044Z,7.56
2018-10-01T05:10:40.409Z,9.00
2018-10-01T05:11:40.865Z,10.89
2018-10-01T05:12:41.174Z,12.96
2018-10-01T05:13:41.555Z,15.39
2018-10-01T05:14:41.792Z,18.18
2018-10-01T05:15:41.035Z,21.33
2018-10-01T05:16:42.430Z,25.02
2018-10-01T05:17:42.938Z,29.16
2018-10-01T05:18:43.301Z,33.66
2018-10-01T05:19:43.628Z,38.70
2018-10-01T05:20:44.204Z,44.28
2018-10-01T05:21:44.575Z,50.04
2018-10-01T05:22:44.993Z,57.24
2018-10-01T05:23:45.475Z,65.88
2018-10-01T05:24:46.055Z,75.96
2018-10-01T05:25:46.386Z,85.32
2018-10-01T05:26:46.752Z,93.60
2018-10-01T05:27:47.042Z,103.68
2018-10-01T05:28:47.331Z,115.92
2018-10-01T05:29:48.128Z,127.44
2018-10-01T05:30:48.419Z,138.24
2018-10-01T05:31:48.854Z,146.88
2018-10-01T05:32:49.381Z,153.36
2018-10-01T05:33:49.704Z,158.40
2018-10-01T05:34:50.140Z,164.88
2018-10-01T05:35:50.460Z,168.48
2018-10-01T05:36:51.031Z,177.84
2018-10-01T05:37:51.556Z,191.52
2018-10-01T05:38:50.872Z,204.48
2018-10-01T05:39:52.344Z,205.92
2018-10-01T05:40:52.676Z,223.20
2018-10-01T05:41:53.087Z,249.12
2018-10-01T05:42:53.891Z,273.60
2018-10-01T05:43:01.969Z,276.48
2018-10-01T05:44:03.299Z,308.16
2018-10-01T05:45:03.728Z,328.32
2018-10-01T05:46:04.153Z,344.16
2018-10-01T05:47:04.462Z,351.36
2018-10-01T05:48:04.980Z,357.12
2018-10-01T05:49:05.865Z,362.88
2018-10-01T05:50:05.243Z,368.64
2018-10-01T05:51:06.660Z,377.28
2018-10-01T05:52:07.527Z,383.04
2018-10-01T05:53:08.187Z,388.80
2018-10-01T05:54:08.514Z,391.68
2018-10-01T05:55:08.863Z,388.80
2018-10-01T05:56:09.179Z,403.20
2018-10-01T05:57:09.442Z,420.48
2018-10-01T05:58:09.894Z,440.64
2018-10-01T05:59:09.190Z,460.80
2018-10-01T06:00:09.847Z,475.20
2018-10-01T06:01:11.228Z,480.96
2018-10-01T06:02:11.512Z,486.72
2018-10-01T06:03:11.968Z,495.36
2018-10-01T06:04:12.310Z,518.40
2018-10-01T06:05:12.663Z,541.44
2018-10-01T06:06:13.037Z,567.36
2018-10-01T06:07:13.346Z,587.52
2018-10-01T06:08:13.739Z,610.56
2018-10-01T06:09:14.210Z,630.72
2018-10-01T06:10:15.036Z,653.76
2018-10-01T06:11:15.374Z,659.52
2018-10-01T06:12:15.684Z,694.08
2018-10-01T06:13:16.113Z,754.56
2018-10-01T06:14:16.491Z,806.40
2018-10-01T06:15:16.997Z,800.64
2018-10-01T06:16:17.289Z,812.16
2018-10-01T06:17:17.559Z,898.56
2018-10-01T06:18:18.266Z,996.48
2018-10-01T06:19:17.606Z,1134.72
2018-10-01T06:20:18.961Z,1186.56
2018-10-01T06:21:19.285Z,1203.84
2018-10-01T06:22:19.780Z,1226.88
2018-10-01T06:23:20.141Z,1290.24
2018-10-01T06:24:20.461Z,1428.48
2018-10-01T06:25:21.006Z,1486.08
2018-10-01T06:26:20.231Z,1497.60
2018-10-01T06:27:21.570Z,1474.56
2018-10-01T06:28:22.197Z,1411.20
2018-10-01T06:29:22.511Z,1330.56
2018-10-01T06:29:30.564Z,1336.32
2018-10-01T06:30:32.444Z,1411.20
2018-10-01T06:31:32.855Z,1445.76
2018-10-01T06:32:33.209Z,1578.24
2018-10-01T06:33:33.538Z,1624.32
2018-10-01T06:34:33.893Z,1509.12
2018-10-01T06:35:34.217Z,1774.08
2018-10-01T06:36:34.521Z,1958.40
2018-10-01T06:37:35.113Z,2154.24
2018-10-01T06:38:35.492Z,2050.56
2018-10-01T06:39:35.835Z,2073.60
2018-10-01T06:40:36.629Z,2223.36
2018-10-01T06:41:37.184Z,2096.64
2018-10-01T06:42:36.391Z,2188.80
2018-10-01T06:43:37.861Z,2384.64
2018-10-01T06:44:38.380Z,2568.96
2018-10-01T06:45:38.681Z,2638.08
2018-10-01T06:46:37.974Z,2730.24
2018-10-01T06:47:39.392Z,2880.00
2018-10-01T06:48:39.789Z,2949.12
2018-10-01T06:49:40.230Z,2707.20
2018-10-01T06:50:40.586Z,2845.44
2018-10-01T06:51:39.919Z,2753.28
2018-10-01T06:52:41.208Z,2764.80
2018-10-01T06:53:41.553Z,2845.44
2018-10-01T06:54:42.019Z,2926.08
2018-10-01T06:55:42.340Z,3041.28
2018-10-01T06:56:42.719Z,3156.48
2018-10-01T06:57:43.216Z,3225.60
2018-10-01T06:58:43.521Z,3363.84
2018-10-01T06:59:43.850Z,3363.84
2018-10-01T07:00:44.186Z,3317.76
2018-10-01T07:01:44.653Z,3248.64
2018-10-01T07:02:45.138Z,3202.56
2018-10-01T07:03:45.562Z,3179.52
2018-10-01T07:04:45.990Z,3110.40
2018-10-01T07:05:46.516Z,3041.28
2018-10-01T07:06:46.133Z,2937.60
2018-10-01T07:07:47.757Z,2822.40
2018-10-01T07:08:48.214Z,2718.72
2018-10-01T07:09:47.574Z,2603.52
2018-10-01T07:10:48.958Z,2534.40
2018-10-01T07:11:49.480Z,2476.80
2018-10-01T07:12:49.907Z,2592.00
2018-10-01T07:13:50.405Z,2603.52
2018-10-01T07:14:50.884Z,2430.72
2018-10-01T07:15:51.372Z,2292.48
2018-10-01T07:16:52.036Z,2177.28
2018-10-01T07:17:51.373Z,2016.00
2018-10-01T07:18:52.676Z,2027.52
2018-10-01T07:19:01.052Z,2027.52
2018-10-01T07:20:02.546Z,1981.44
2018-10-01T07:21:02.909Z,1935.36
2018-10-01T07:22:03.239Z,1912.32
2018-10-01T07:23:04.154Z,1877.76
2018-10-01T07:24:03.677Z,1992.96
2018-10-01T07:25:05.029Z,2039.04
2018-10-01T07:26:05.331Z,2165.76
2018-10-01T07:27:05.677Z,2373.12
2018-10-01T07:28:05.998Z,2545.92
2018-10-01T07:29:06.371Z,2741.76
2018-10-01T07:30:06.812Z,2730.24
2018-10-01T07:31:06.900Z,2730.24
2018-10-01T07:32:07.577Z,3087.36
2018-10-01T07:33:08.194Z,3548.16
2018-10-01T07:34:08.593Z,3525.12
2018-10-01T07:35:08.964Z,2972.16
2018-10-01T07:36:09.339Z,2833.92
2018-10-01T07:37:09.757Z,3133.44
2018-10-01T07:38:10.180Z,4078.08
2018-10-01T07:39:10.573Z,3870.72
2018-10-01T07:40:11.174Z,3248.64
2018-10-01T07:41:11.579Z,3663.36
2018-10-01T07:42:12.179Z,4561.92
2018-10-01T07:43:12.518Z,4308.48
2018-10-01T07:44:12.986Z,4538.88
2018-10-01T07:45:13.342Z,4584.96
2018-10-01T07:46:12.750Z,4377.60
2018-10-01T07:47:13.188Z,3686.40
2018-10-01T07:48:14.531Z,3525.12
2018-10-01T07:49:14.802Z,3686.40
2018-10-01T07:50:15.197Z,3824.64
2018-10-01T07:51:15.570Z,4216.32
2018-10-01T07:52:15.979Z,3847.68
2018-10-01T07:53:16.559Z,3617.28
2018-10-01T07:54:15.803Z,3870.72
2018-10-01T07:55:17.361Z,3824.64
2018-10-01T07:56:17.694Z,3525.12
2018-10-01T07:57:18.040Z,3409.92
2018-10-01T07:58:17.436Z,3525.12
2018-10-01T07:59:18.946Z,3916.80
2018-10-01T08:00:19.300Z,3962.88
2018-10-01T08:01:18.584Z,3870.72
2018-10-01T08:02:19.993Z,3778.56
2018-10-01T08:03:19.230Z,3893.76
2018-10-01T08:04:20.720Z,4078.08
2018-10-01T08:05:21.176Z,4354.56
2018-10-01T08:06:21.739Z,4170.24
2018-10-01T08:07:21.031Z,3916.80
2018-10-01T08:08:22.702Z,4538.88
2018-10-01T08:08:31.165Z,4769.28
2018-10-01T08:09:31.557Z,6174.72
2018-10-01T08:10:31.865Z,6266.88
2018-10-01T08:11:33.217Z,5829.12
2018-10-01T08:12:33.574Z,5713.92
2018-10-01T08:13:33.953Z,6082.56
2018-10-01T08:14:34.404Z,5944.32
2018-10-01T08:15:33.942Z,5022.72
2018-10-01T08:16:35.509Z,5414.40
2018-10-01T08:17:36.047Z,5898.24
2018-10-01T08:18:36.602Z,7326.72
2018-10-01T08:19:37.357Z,8616.96
2018-10-01T08:20:38.143Z,9446.40
2018-10-01T08:21:37.660Z,10460.16
2018-10-01T08:22:38.872Z,11704.32
2018-10-01T08:23:38.677Z,9999.36
2018-10-01T08:24:39.004Z,8616.96
2018-10-01T08:25:40.493Z,8939.52
2018-10-01T08:26:41.183Z,10368.00
2018-10-01T08:27:40.234Z,10598.40
2018-10-01T08:28:41.800Z,8432.64
2018-10-01T08:29:42.508Z,7925.76
2018-10-01T08:30:41.786Z,8202.24
2018-10-01T08:31:43.506Z,8432.64
2018-10-01T08:32:43.525Z,8939.52
2018-10-01T08:33:44.279Z,8939.52
2018-10-01T08:34:45.033Z,7971.84
2018-10-01T08:35:45.370Z,7741.44
2018-10-01T08:36:46.084Z,9815.04
2018-10-01T08:37:46.737Z,11612.16
2018-10-01T08:38:47.305Z,11566.08
2018-10-01T08:39:46.502Z,10828.80
2018-10-01T08:40:47.988Z,9216.00
2018-10-01T08:41:48.409Z,8939.52
2018-10-01T08:42:48.853Z,8939.52
2018-10-01T08:43:49.299Z,7418.88
2018-10-01T08:44:49.714Z,7188.48
2018-10-01T08:45:50.060Z,7787.52
2018-10-01T08:46:50.589Z,7372.80
2018-10-01T08:47:50.953Z,7695.36
2018-10-01T08:48:51.282Z,8202.24
2018-10-01T08:49:51.560Z,9953.28
2018-10-01T08:50:51.978Z,11105.28
2018-10-01T08:51:52.695Z,10920.96
2018-10-01T08:52:51.939Z,9492.48
2018-10-01T08:53:53.578Z,7372.80
2018-10-01T08:54:54.151Z,7879.68
2018-10-01T08:55:54.934Z,9768.96
2018-10-01T08:56:55.291Z,11612.16
2018-10-01T08:57:55.891Z,11612.16
2018-10-01T08:58:56.031Z,10967.04
2018-10-01T08:59:55.420Z,11427.84
2018-10-01T09:00:04.891Z,11289.60
2018-10-01T09:01:04.845Z,9400.32
2018-10-01T09:02:05.364Z,8524.80
2018-10-01T09:03:05.803Z,9446.40
2018-10-01T09:04:06.790Z,9262.08
2018-10-01T09:05:07.266Z,8202.24
2018-10-01T09:06:06.661Z,8847.36
2018-10-01T09:07:08.192Z,10460.16
2018-10-01T09:08:08.571Z,10828.80
2018-10-01T09:09:08.856Z,8663.04
2018-10-01T09:10:09.237Z,7971.84
2018-10-01T09:11:09.703Z,8017.92
2018-10-01T09:12:08.982Z,8340.48
2018-10-01T09:13:10.536Z,8386.56
2018-10-01T09:14:11.596Z,7464.96
2018-10-01T09:15:11.300Z,7326.72
2018-10-01T09:16:12.633Z,7464.96
2018-10-01T09:17:13.097Z,8017.92
2018-10-01T09:18:12.458Z,7741.44
2018-10-01T09:19:14.304Z,7326.72
2018-10-01T09:20:14.852Z,7603.20
2018-10-01T09:21:14.217Z,8847.36
2018-10-01T09:22:14.519Z,8294.40
2018-10-01T09:23:16.484Z,7925.76
2018-10-01T09:24:16.284Z,8893.44
2018-10-01T09:25:17.610Z,8985.60
2018-10-01T09:26:18.128Z,9354.24
2018-10-01T09:27:17.439Z,9861.12
2018-10-01T09:28:19.325Z,10644.48
2018-10-01T09:29:18.807Z,11520.00
2018-10-01T09:30:19.132Z,11566.08
2018-10-01T09:31:20.462Z,11888.64
2018-10-01T09:32:20.975Z,12718.08
2018-10-01T09:33:22.542Z,12349.44
2018-10-01T09:34:20.965Z,11980.80
2018-10-01T09:35:22.472Z,11427.84
2018-10-01T09:36:21.718Z,11335.68
2018-10-01T09:37:23.101Z,13363.20
2018-10-01T09:38:23.666Z,10368.00
2018-10-01T09:39:23.184Z,14100.48
2018-10-01T09:40:23.841Z,22671.36
2018-10-01T09:41:25.192Z,19537.92
2018-10-01T09:42:25.546Z,25067.52
2018-10-01T09:43:25.934Z,23500.80
2018-10-01T09:44:26.277Z,32440.32
2018-10-01T09:45:25.624Z,33361.92
2018-10-01T09:46:27.108Z,29491.20
2018-10-01T09:47:26.821Z,28016.64
2018-10-01T09:48:28.454Z,31703.04
2018-10-01T09:49:28.827Z,32808.96
2018-10-01T09:50:29.391Z,34099.20
2018-10-01T09:51:28.667Z,36311.04
2018-10-01T09:52:30.074Z,38522.88
2018-10-01T09:53:29.408Z,40919.04
2018-10-01T09:54:30.726Z,34467.84
2018-10-01T09:55:31.038Z,28200.96
2018-10-01T09:56:31.446Z,16680.96
2018-10-01T09:57:31.201Z,17510.40
2018-10-01T09:58:33.019Z,16312.32
2018-10-01T09:59:32.328Z,18155.52
2018-10-01T09:59:41.277Z,17510.40
2018-10-01T10:00:42.640Z,16404.48
2018-10-01T10:01:43.391Z,15575.04
2018-10-01T10:02:43.830Z,13271.04
2018-10-01T10:03:44.368Z,11980.80
2018-10-01T10:04:44.753Z,12441.60
2018-10-01T10:05:43.935Z,13271.04
2018-10-01T10:06:45.258Z,13363.20
2018-10-01T10:07:45.774Z,11888.64
2018-10-01T10:08:46.294Z,8156.16
2018-10-01T10:09:46.699Z,7603.20
2018-10-01T10:10:47.104Z,8156.16
2018-10-01T10:11:47.444Z,10828.80
2018-10-01T10:12:47.997Z,13363.20
2018-10-01T10:13:48.520Z,14469.12
2018-10-01T10:14:48.963Z,13363.20
2018-10-01T10:15:49.266Z,12072.96
2018-10-01T10:16:50.120Z,11980.80
2018-10-01T10:17:49.547Z,11335.68
2018-10-01T10:18:49.957Z,11381.76
2018-10-01T10:19:51.383Z,11427.84
2018-10-01T10:20:51.742Z,10874.88
2018-10-01T10:21:52.060Z,10091.52
2018-10-01T10:22:52.492Z,8709.12
2018-10-01T10:23:52.936Z,7142.40
2018-10-01T10:24:53.331Z,6036.48
2018-10-01T10:25:53.667Z,5529.60
2018-10-01T10:26:54.160Z,4815.36
2018-10-01T10:27:54.541Z,4239.36
2018-10-01T10:28:54.957Z,3847.68
2018-10-01T10:29:55.271Z,4078.08
2018-10-01T10:30:55.689Z,4400.64
2018-10-01T10:31:56.072Z,4170.24
2018-10-01T10:32:56.386Z,4032.00
2018-10-01T10:33:56.805Z,4170.24
2018-10-01T10:34:57.163Z,4032.00
2018-10-01T10:35:57.494Z,3939.84
2018-10-01T10:36:57.985Z,4354.56
2018-10-01T10:37:58.284Z,6174.72
2018-10-01T10:38:57.603Z,7971.84
2018-10-01T10:39:58.956Z,9676.80
2018-10-01T10:40:59.454Z,10091.52
2018-10-01T10:41:59.925Z,9953.28
2018-10-01T10:43:00.464Z,9446.40
2018-10-01T10:44:01.042Z,10183.68
2018-10-01T10:45:00.421Z,11197.44
2018-10-01T10:46:01.721Z,11335.68
2018-10-01T10:47:02.246Z,10644.48
2018-10-01T10:48:02.941Z,11243.52
2018-10-01T10:49:02.543Z,12902.40
2018-10-01T10:49:10.649Z,16220.16
2018-10-01T10:50:11.972Z,23040.00
2018-10-01T10:51:11.223Z,33546.24
2018-10-01T10:52:12.606Z,39997.44
2018-10-01T10:53:13.277Z,39260.16
2018-10-01T10:54:13.657Z,40366.08
2018-10-01T10:55:14.030Z,41656.32
2018-10-01T10:56:14.440Z,16588.80
2018-10-01T10:57:13.770Z,43868.16
2018-10-01T10:58:15.276Z,13824.00
2018-10-01T10:59:15.727Z,10736.64
2018-10-01T11:00:16.115Z,7280.64
2018-10-01T11:01:15.488Z,4354.56
2018-10-01T11:02:16.887Z,3824.64
2018-10-01T11:03:16.290Z,6128.64
2018-10-01T11:04:17.791Z,7833.60
2018-10-01T11:05:18.158Z,9446.40
2018-10-01T11:06:18.448Z,10736.64
2018-10-01T11:07:18.928Z,11888.64
2018-10-01T11:08:18.416Z,13824.00
2018-10-01T11:09:18.664Z,17602.56
2018-10-01T11:10:20.191Z,41840.64
2018-10-01T11:11:20.580Z,35758.08
2018-10-01T11:12:19.929Z,47923.20
2018-10-01T11:13:21.515Z,50135.04
2018-10-01T11:14:22.179Z,50135.04
2018-10-01T11:15:21.500Z,47554.56
2018-10-01T11:16:21.939Z,28569.60
2018-10-01T11:17:23.748Z,10368.00
2018-10-01T11:18:23.112Z,9492.48
2018-10-01T11:19:23.210Z,9768.96
2018-10-01T11:20:23.530Z,16865.28
2018-10-01T11:21:23.516Z,41840.64
2018-10-01T11:22:23.952Z,8663.04
2018-10-01T11:23:25.504Z,9354.24
2018-10-01T11:24:25.419Z,45158.40
2018-10-01T11:25:25.681Z,45711.36
2018-10-01T11:26:26.106Z,10782.72
2018-10-01T11:27:27.979Z,10275.84
2018-10-01T11:28:27.718Z,9169.92
2018-10-01T11:29:28.243Z,9354.24
2018-10-01T11:30:29.695Z,9492.48
2018-10-01T11:31:30.278Z,9077.76
2018-10-01T11:32:30.026Z,8524.80
2018-10-01T11:33:31.640Z,7741.44
2018-10-01T11:34:32.090Z,7649.28
2018-10-01T11:35:31.487Z,7603.20
2018-10-01T11:36:32.887Z,8064.00
2018-10-01T11:37:33.359Z,7326.72
2018-10-01T11:38:33.709Z,6773.76
2018-10-01T11:39:34.296Z,5898.24
2018-10-01T11:40:33.713Z,5276.16
2018-10-01T11:41:35.090Z,6681.60
2018-10-01T11:42:36.133Z,40734.72
2018-10-01T11:43:35.665Z,39813.12
2018-10-01T11:44:35.525Z,38891.52
2018-10-01T11:45:37.007Z,39075.84
2018-10-01T11:46:36.239Z,39260.16
2018-10-01T11:47:38.212Z,40366.08
2018-10-01T11:48:38.556Z,42024.96
2018-10-01T11:49:38.919Z,40366.08
2018-10-01T11:50:39.278Z,46080.00
2018-10-01T11:51:39.718Z,17418.24
2018-10-01T11:52:39.022Z,45895.68
2018-10-01T11:52:55.076Z,45527.04
2018-10-01T11:53:56.486Z,41103.36
2018-10-01T11:54:55.863Z,11427.84
2018-10-01T11:55:57.225Z,11658.24
2018-10-01T11:56:58.120Z,43683.84
2018-10-01T11:57:58.432Z,42209.28
2018-10-01T11:58:59.092Z,13824.00
2018-10-01T11:59:59.519Z,41656.32
2018-10-01T12:00:59.418Z,40734.72
2018-10-01T12:02:01.033Z,37785.60
2018-10-01T12:03:01.518Z,6405.12
2018-10-01T12:04:00.947Z,40919.04
2018-10-01T12:05:01.346Z,41287.68
2018-10-01T12:06:02.934Z,41103.36
2018-10-01T12:07:01.840Z,40734.72
2018-10-01T12:08:03.529Z,41472.00
2018-10-01T12:09:03.893Z,23961.60
2018-10-01T12:10:04.320Z,11427.84
2018-10-01T12:11:03.655Z,14376.96
2018-10-01T12:12:05.224Z,18155.52
2018-10-01T12:13:05.578Z,16496.64
2018-10-01T12:14:05.920Z,13363.20
2018-10-01T12:15:06.543Z,9907.20
2018-10-01T12:16:05.944Z,7787.52
2018-10-01T12:17:06.390Z,6589.44
2018-10-01T12:18:08.296Z,5898.24
2018-10-01T12:19:08.896Z,5575.68
2018-10-01T12:20:09.449Z,5575.68
2018-10-01T12:21:10.277Z,5437.44
2018-10-01T12:22:10.066Z,4631.04
2018-10-01T12:23:10.626Z,3617.28
2018-10-01T12:24:12.153Z,3271.68
2018-10-01T12:25:11.692Z,3409.92